Round Lake, Minnesota
Current Conditions -  °F | °C
As of 11:15 PM on Thursday 30 Oct 2014 (Local Time) from KOTG Reporting Station
Overcast Overcast  
Wind Chill: 21°   Ceiling: 2900
Heat Index: 34°   Visibility: 10mi
Dew Point: 21°   Wind: 26mph
Humidity: 60%   Direction: 360°N
Pressure: 30.41"   Gusts: 33mph
Location:  43.54°N, 95.47°W
Report Text: KOTG 310415Z AUTO 36023G29KT 10SM OVC029 01/M06 A3041 RMK AO1
Loading
Personal Weather Stations






























Interactive Weather Map
Tropical Storm Tracking
New forecast layout! Learn more

10-Day Weather Forecast

Advertisements
Track Severe Weather on mobile